Terminal Aerodrome Forecast
Issued by NWS

Home | Current Version | Previous Version | Text Only | Print | Product List | Glossary On
Versions: 1 2 3 4 5 6 7 8 9 10 11 12 13 14 15 16 17 18 19 20
000
FTUS41 KBOX 060541
TAFACK
TAF
KACK 060541Z 0606/0706 36019G27KT P6SM OVC009
     FM060700 01016KT 5SM BR OVC008
     FM061400 04014KT 6SM BR BKN045
     FM062100 08015G22KT 4SM BR VCSH BKN030
     FM070200 09012KT 3SM BR VCSH BKN010=

USA.gov is the U.S. government's official web portal to all federal, state and local government web resources and services.